This is the latest recevied weather packets stored in our database for station/object W4SMH. If no packets are shown the sender has not sent any weather packets the latest 10 day(s).
| Time | Temp. | Humidity | Pressure | Rain* | Wind** | Luminosity | Snow |
|---|---|---|---|---|---|---|---|
| 1777442210 | 12.22° C | 65% | 1011.4 hPa | 0 mm | - | 0 W/m² | - |
| 1777442174 | 12.22° C | 65% | 1011.3 hPa | 0 mm | - | 0 W/m² | - |
| 1777441720 | 12.22° C | 63% | 1011.3 hPa | 0 mm | - | 0 W/m² | - |
| 1777441660 | 12.22° C | 64% | 1011.4 hPa | 0 mm | - | 0 W/m² | - |
| 1777439886 | 10.56° C | 81% | 1015.2 hPa | 0 mm | - | 0 W/m² | - |
| 1777439863 | 12.22° C | 69% | 1011.8 hPa | 0 mm | - | 0 W/m² | - |
| 1777439829 | 12.22° C | 69% | 1011.7 hPa | 0 mm | - | 0 W/m² | - |
| 1777439649 | 12.78° C | 68% | 1011.7 hPa | 0 mm | - | 0 W/m² | - |
| 1777439505 | 12.22° C | 66% | 1011.7 hPa | 0 mm | - | 0 W/m² | - |
| 1777439481 | 12.22° C | 66% | 1011.8 hPa | 0 mm | - | 0 W/m² | - |
| 1777439444 | 12.22° C | 66% | 1011.7 hPa | 0 mm | - | 0 W/m² | - |
| 1777439355 | 12.22° C | 67% | 1011.9 hPa | 0 mm | - | 0 W/m² | - |
| 1777439279 | 12.22° C | 68% | 1011.8 hPa | 0 mm | - | 0 W/m² | - |
| 1777437985 | 12.78° C | 74% | 1012.2 hPa | 0 mm | - | 0 W/m² | - |
| 1777437453 | 12.78° C | 74% | 1012.2 hPa | 0 mm | - | 0 W/m² | - |
| 1777437413 | 12.78° C | 74% | 1012.2 hPa | 0 mm | - | 0 W/m² | - |
| 1777437354 | 12.78° C | 73% | 1012.3 hPa | 0 mm | - | 0 W/m² | - |
| 1777437046 | 12.78° C | 73% | 1012.1 hPa | 0 mm | - | 0 W/m² | - |
| 1777437020 | 12.78° C | 72% | 1012 hPa | 0 mm | - | 0 W/m² | - |
| 1777436820 | 12.78° C | 72% | 1012.2 hPa | 0 mm | - | 0 W/m² | - |
| 1777436419 | 12.78° C | 72% | 1012.1 hPa | 0 mm | - | 0 W/m² | - |
* Rain latest hour (hover to see other rain measurements)
** Current wind speed in m/s (hover to see current wind gust speed)